Tolacon, Arizona
Current Conditions -  °F | °C
As of 6:53 AM on Friday 24 Oct 2014 (Local Time) from KCEZ Reporting Station
Clear Clear  
Wind Chill: 32°   Ceiling: Unl
Heat Index: 32°   Visibility: 10mi
Dew Point: 27°   Wind: 3mph
Humidity: 82%   Direction: 80°E
Pressure: 30.34"   Gusts: NA
Location:  36.7518°N, 109.365°W
Report Text: KCEZ 241253Z AUTO 08003KT 10SM CLR 00/M03 A3034 RMK AO2 SLP254 T00001028
Loading
Personal Weather Stations






























Interactive Weather Map
Tropical Storm Tracking
New forecast layout! Learn more

10-Day Weather Forecast

Advertisements
Track Severe Weather on mobile